createdAt,value
2018-12-23T00:01:23.592Z,436.65
2018-12-23T00:03:54.483Z,387.25
2018-12-23T00:06:25.033Z,370.12
2018-12-23T00:08:56.064Z,366.82
2018-12-23T00:11:26.619Z,340.37
2018-12-23T00:13:57.253Z,331.73
2018-12-23T00:16:27.968Z,292.55
2018-12-23T00:18:58.240Z,251.45
2018-12-23T00:21:28.981Z,230.87
2018-12-23T00:23:59.552Z,333.07
2018-12-23T00:26:30.585Z,438.87
2018-12-23T00:29:01.275Z,437.88
2018-12-23T00:31:31.963Z,462.92
2018-12-23T00:34:02.560Z,459.18
2018-12-23T00:36:33.316Z,457.88
2018-12-23T00:39:04.958Z,469.30
2018-12-23T00:41:36.684Z,455.00
2018-12-23T00:44:08.717Z,444.32
2018-12-23T00:46:39.188Z,431.60
2018-12-23T00:49:09.917Z,446.80
2018-12-23T00:51:40.462Z,442.95
2018-12-23T00:54:11.194Z,422.13
2018-12-23T00:56:41.919Z,456.57
2018-12-23T00:59:12.634Z,427.05
2018-12-23T01:01:43.525Z,393.48
2018-12-23T01:04:14.681Z,406.43
2018-12-23T01:06:45.423Z,397.65
2018-12-23T01:09:16.004Z,387.02
2018-12-23T01:11:46.818Z,393.50
2018-12-23T01:14:17.504Z,384.00
2018-12-23T01:16:48.148Z,382.27
2018-12-23T01:19:18.812Z,379.60
2018-12-23T01:21:49.499Z,376.20
2018-12-23T01:24:20.107Z,352.98
2018-12-23T01:26:50.838Z,375.68
2018-12-23T01:29:21.556Z,359.83
2018-12-23T01:31:52.372Z,361.80
2018-12-23T01:34:24.156Z,358.32
2018-12-23T01:36:54.943Z,349.18
2018-12-23T01:39:26.104Z,355.73
2018-12-23T01:41:56.725Z,343.02
2018-12-23T01:44:27.479Z,349.50
2018-12-23T01:46:58.552Z,361.05
2018-12-23T01:49:29.039Z,368.97
2018-12-23T01:51:59.972Z,363.68
2018-12-23T01:54:30.673Z,356.15
2018-12-23T01:57:01.338Z,354.18
2018-12-23T01:59:32.055Z,359.87
2018-12-23T02:02:02.791Z,346.40
2018-12-23T02:04:33.580Z,357.27
2018-12-23T02:07:04.250Z,340.43
2018-12-23T02:09:35.204Z,364.02
2018-12-23T02:12:05.862Z,354.60
2018-12-23T02:14:36.519Z,351.32
2018-12-23T02:17:07.232Z,352.50
2018-12-23T02:19:37.883Z,319.70
2018-12-23T02:22:08.690Z,299.58
2018-12-23T02:24:39.346Z,282.53
2018-12-23T02:27:10.159Z,261.62
2018-12-23T02:29:40.659Z,266.30
2018-12-23T02:32:11.509Z,259.73
2018-12-23T02:34:42.119Z,294.73
2018-12-23T02:37:13.009Z,243.25
2018-12-23T02:39:43.604Z,215.62
2018-12-23T02:42:14.342Z,220.52
2018-12-23T02:44:44.797Z,210.68
2018-12-23T02:47:15.584Z,175.85
2018-12-23T02:49:45.959Z,181.40
2018-12-23T02:52:16.814Z,182.53
2018-12-23T02:54:48.476Z,170.20
2018-12-23T02:57:19.258Z,170.10
2018-12-23T02:59:49.959Z,160.93
2018-12-23T03:02:21.776Z,157.72
2018-12-23T03:04:52.450Z,165.97
2018-12-23T03:07:23.139Z,146.82
2018-12-23T03:09:53.797Z,121.77
2018-12-23T03:12:24.644Z,100.00
2018-12-23T03:14:55.675Z,78.20
2018-12-23T03:17:26.845Z,60.83
2018-12-23T03:19:57.960Z,30.15
2018-12-23T03:22:28.861Z,25.95
2018-12-23T03:24:59.514Z,16.00
2018-12-23T03:27:30.206Z,11.22
2018-12-23T03:30:00.624Z,8.53
2018-12-23T03:32:31.541Z,7.00
2018-12-23T03:35:02.149Z,6.05
2018-12-23T03:37:32.662Z,7.35
2018-12-23T03:40:03.197Z,4.92
2018-12-23T03:42:33.714Z,4.28
2018-12-23T03:45:04.639Z,4.75
2018-12-23T03:47:35.451Z,6.03
2018-12-23T03:50:07.002Z,4.92
2018-12-23T03:52:37.657Z,4.55
2018-12-23T03:55:08.554Z,4.10
2018-12-23T03:57:39.172Z,4.12
2018-12-23T04:00:10.181Z,3.77
2018-12-23T04:02:40.788Z,3.45
2018-12-23T04:05:11.504Z,3.77
2018-12-23T04:07:42.259Z,3.95
2018-12-23T04:10:12.723Z,69.20
2018-12-23T04:12:43.316Z,96.50
2018-12-23T04:15:14.114Z,98.50
2018-12-23T04:17:45.570Z,113.50
2018-12-23T04:20:16.677Z,124.40
2018-12-23T04:22:47.897Z,113.47
2018-12-23T04:25:18.741Z,119.25
2018-12-23T04:27:49.346Z,110.22
2018-12-23T04:30:19.959Z,65.28
2018-12-23T04:32:50.755Z,52.17
2018-12-23T04:35:21.567Z,31.35
2018-12-23T04:37:52.526Z,22.62
2018-12-23T04:40:23.461Z,15.88
2018-12-23T04:42:54.379Z,15.30
2018-12-23T04:45:25.016Z,16.27
2018-12-23T04:47:55.868Z,18.90
2018-12-23T04:50:26.667Z,14.05
2018-12-23T04:52:57.409Z,17.70
2018-12-23T04:55:28.162Z,30.43
2018-12-23T04:57:58.868Z,33.18
2018-12-23T05:00:29.719Z,35.17
2018-12-23T05:03:00.676Z,35.60
2018-12-23T05:05:31.246Z,32.38
2018-12-23T05:08:02.043Z,28.38
2018-12-23T05:10:32.938Z,27.70
2018-12-23T05:13:03.611Z,25.80
2018-12-23T05:15:34.284Z,22.13
2018-12-23T05:18:04.879Z,19.07
2018-12-23T05:20:35.434Z,17.23
2018-12-23T05:23:06.113Z,17.35
2018-12-23T05:25:36.878Z,16.42
2018-12-23T05:28:07.655Z,15.88
2018-12-23T05:30:38.304Z,13.20
2018-12-23T05:33:09.084Z,15.68
2018-12-23T05:35:39.484Z,14.60
2018-12-23T05:38:10.341Z,16.57
2018-12-23T05:40:41.170Z,14.73
2018-12-23T05:43:11.857Z,14.47
2018-12-23T05:45:42.359Z,22.67
2018-12-23T05:48:12.956Z,17.82
2018-12-23T05:50:43.715Z,22.65
2018-12-23T05:53:14.514Z,21.73
2018-12-23T05:55:43.760Z,18.17
2018-12-23T05:58:14.523Z,19.23
2018-12-23T06:00:45.091Z,17.67
2018-12-23T06:03:15.632Z,16.23
2018-12-23T06:05:46.306Z,14.20
2018-12-23T06:08:16.730Z,16.60
2018-12-23T06:10:47.269Z,11.97
2018-12-23T06:13:17.908Z,13.03
2018-12-23T06:15:48.427Z,11.68
2018-12-23T06:18:19.153Z,13.25
2018-12-23T06:20:49.859Z,13.98
2018-12-23T06:23:20.413Z,15.65
2018-12-23T06:25:51.242Z,14.45
2018-12-23T06:28:21.703Z,15.23
2018-12-23T06:30:52.216Z,16.55
2018-12-23T06:33:22.702Z,17.70
2018-12-23T06:35:53.454Z,19.40
2018-12-23T06:38:24.072Z,28.23
2018-12-23T06:40:54.844Z,32.28
2018-12-23T06:43:25.434Z,26.57
2018-12-23T06:45:56.300Z,31.80
2018-12-23T06:48:27.040Z,31.35
2018-12-23T06:50:57.826Z,30.27
2018-12-23T06:53:28.650Z,29.77
2018-12-23T06:55:59.280Z,29.55
2018-12-23T06:58:30.348Z,29.90
2018-12-23T07:01:01.128Z,24.57
2018-12-23T07:03:31.888Z,26.77
2018-12-23T07:06:02.343Z,24.75
2018-12-23T07:08:32.900Z,31.17
2018-12-23T07:11:03.514Z,36.95
2018-12-23T07:13:34.339Z,35.63
2018-12-23T07:16:04.950Z,28.87
2018-12-23T07:18:35.831Z,29.10
2018-12-23T07:21:06.726Z,25.05
2018-12-23T07:23:37.596Z,24.63
2018-12-23T07:26:09.261Z,20.32
2018-12-23T07:28:40.156Z,23.30
2018-12-23T07:31:10.971Z,20.95
2018-12-23T07:33:41.671Z,21.17
2018-12-23T07:36:12.302Z,24.67
2018-12-23T07:38:42.977Z,23.70
2018-12-23T07:41:13.834Z,24.77
2018-12-23T07:43:44.558Z,20.10
2018-12-23T07:46:15.563Z,17.87
2018-12-23T07:48:46.330Z,19.27
2018-12-23T07:51:17.148Z,18.00
2018-12-23T07:53:48.066Z,19.87
2018-12-23T07:56:18.832Z,19.25
2018-12-23T07:58:49.558Z,18.48
2018-12-23T08:01:20.216Z,16.87
2018-12-23T08:03:51.055Z,15.58
2018-12-23T08:06:21.937Z,16.45
2018-12-23T08:08:52.908Z,17.57
2018-12-23T08:11:23.669Z,17.10
2018-12-23T08:13:54.765Z,13.88
2018-12-23T08:16:26.460Z,10.43
2018-12-23T08:18:57.200Z,8.18
2018-12-23T08:21:28.812Z,5.93
2018-12-23T08:23:59.403Z,5.00
2018-12-23T08:26:29.719Z,5.23
2018-12-23T08:29:00.332Z,9.67
2018-12-23T08:31:30.875Z,9.77
2018-12-23T08:34:01.297Z,9.43
2018-12-23T08:36:31.758Z,13.47
2018-12-23T08:39:02.431Z,12.13
2018-12-23T08:41:33.136Z,11.60
2018-12-23T08:44:03.868Z,15.23
2018-12-23T08:46:39.163Z,13.80
2018-12-23T08:49:06.974Z,14.60
2018-12-23T08:51:38.507Z,14.13
2018-12-23T08:54:08.950Z,16.60
2018-12-23T08:56:39.471Z,14.93
2018-12-23T08:59:09.881Z,12.57
2018-12-23T09:01:40.078Z,14.20
2018-12-23T09:04:10.398Z,12.87
2018-12-23T09:06:40.563Z,12.20
2018-12-23T09:09:10.864Z,13.07
2018-12-23T09:11:42.898Z,11.30
2018-12-23T09:14:12.996Z,9.40
2018-12-23T09:16:43.618Z,7.90
2018-12-23T09:19:13.857Z,9.37
2018-12-23T09:21:44.225Z,8.37
2018-12-23T09:24:14.350Z,7.23
2018-12-23T09:26:45.037Z,8.70
2018-12-23T09:29:15.411Z,7.40
2018-12-23T09:31:45.678Z,7.43
2018-12-23T09:34:16.498Z,6.37
2018-12-23T09:36:47.826Z,6.37
2018-12-23T09:39:18.800Z,7.05
2018-12-23T09:41:49.676Z,5.55
2018-12-23T09:44:20.074Z,6.67
2018-12-23T09:46:50.643Z,8.75
2018-12-23T09:49:21.355Z,7.58
2018-12-23T09:51:51.659Z,8.03
2018-12-23T09:54:22.112Z,7.30
2018-12-23T09:56:53.156Z,8.13
2018-12-23T09:59:23.850Z,6.17
2018-12-23T10:01:53.847Z,7.13
2018-12-23T10:04:24.531Z,6.57
2018-12-23T10:06:55.082Z,8.13
2018-12-23T10:09:25.433Z,9.00
2018-12-23T10:11:56.342Z,6.30
2018-12-23T10:14:27.124Z,8.27
2018-12-23T10:16:57.733Z,9.53
2018-12-23T10:19:28.274Z,7.33
2018-12-23T10:21:58.902Z,8.65
2018-12-23T10:24:29.631Z,7.87
2018-12-23T10:27:00.134Z,6.97
2018-12-23T10:29:30.795Z,9.33
2018-12-23T10:32:01.247Z,8.98
2018-12-23T10:34:33.178Z,8.30
2018-12-23T10:37:03.866Z,10.60
2018-12-23T10:39:34.953Z,10.60
2018-12-23T10:42:05.436Z,12.55
2018-12-23T10:44:35.726Z,9.80
2018-12-23T10:47:06.107Z,10.57
2018-12-23T10:49:36.532Z,7.50
2018-12-23T10:52:06.537Z,8.23
2018-12-23T10:54:36.879Z,9.23
2018-12-23T10:57:07.223Z,7.47
2018-12-23T10:59:37.859Z,7.43
2018-12-23T11:02:13.626Z,6.50
2018-12-23T11:04:41.119Z,6.77
2018-12-23T11:07:11.531Z,5.57
2018-12-23T11:09:41.984Z,5.53
2018-12-23T11:12:12.311Z,5.53
2018-12-23T11:14:42.874Z,5.43
2018-12-23T11:17:13.271Z,5.73
2018-12-23T11:19:43.605Z,6.20
2018-12-23T11:22:14.038Z,6.43
2018-12-23T11:24:44.490Z,6.37
2018-12-23T11:27:14.974Z,5.83
2018-12-23T11:29:45.171Z,5.50
2018-12-23T11:32:15.299Z,6.97
2018-12-23T11:34:45.597Z,5.60
2018-12-23T11:37:16.018Z,5.40
2018-12-23T11:39:46.539Z,7.60
2018-12-23T11:42:16.905Z,12.23
2018-12-23T11:44:47.302Z,7.43
2018-12-23T11:47:17.662Z,7.70
2018-12-23T11:49:48.056Z,7.87
2018-12-23T11:52:18.627Z,6.53
2018-12-23T11:54:48.974Z,10.00
2018-12-23T11:57:19.163Z,7.43
2018-12-23T11:59:49.596Z,9.83
2018-12-23T12:02:19.890Z,8.17
2018-12-23T12:04:50.471Z,8.40
2018-12-23T12:07:20.704Z,8.83
2018-12-23T12:09:51.252Z,12.10
2018-12-23T12:12:21.467Z,12.53
2018-12-23T12:14:51.728Z,8.87
2018-12-23T12:17:22.371Z,10.80
2018-12-23T12:19:53.147Z,6.97
2018-12-23T12:22:23.666Z,9.55
2018-12-23T12:24:54.382Z,10.08
2018-12-23T12:27:25.003Z,7.60
2018-12-23T12:29:55.777Z,9.35
2018-12-23T12:32:26.523Z,8.13
2018-12-23T12:34:59.182Z,8.20
2018-12-23T12:37:30.306Z,7.55
2018-12-23T12:40:02.042Z,7.08
2018-12-23T12:42:32.595Z,5.50
2018-12-23T12:45:03.325Z,8.58
2018-12-23T12:47:34.100Z,6.08
2018-12-23T12:50:04.754Z,5.42
2018-12-23T12:52:35.287Z,5.85
2018-12-23T12:55:05.958Z,10.53
2018-12-23T12:57:36.426Z,6.85
2018-12-23T13:00:08.173Z,7.05
2018-12-23T13:02:38.997Z,6.33
2018-12-23T13:05:09.848Z,6.53
2018-12-23T13:07:40.990Z,6.17
2018-12-23T13:10:11.705Z,7.10
2018-12-23T13:12:42.287Z,5.45
2018-12-23T13:15:13.300Z,7.00
2018-12-23T13:17:44.032Z,5.67
2018-12-23T13:20:14.878Z,5.72
2018-12-23T13:22:45.810Z,4.90
2018-12-23T13:25:16.749Z,8.35
2018-12-23T13:27:47.707Z,7.62
2018-12-23T13:30:18.418Z,11.38
2018-12-23T13:32:49.080Z,14.38
2018-12-23T13:35:19.865Z,9.05
2018-12-23T13:37:50.112Z,7.37
2018-12-23T13:40:35.516Z,7.72
2018-12-23T13:43:13.419Z,4.28
2018-12-23T13:46:03.939Z,5.70
2018-12-23T13:48:45.018Z,3.87
2018-12-23T13:51:26.476Z,5.92
2018-12-23T13:54:43.206Z,4.17
2018-12-23T13:57:31.336Z,3.85
2018-12-23T14:01:10.571Z,4.53
2018-12-23T14:04:52.277Z,4.60
2018-12-23T14:09:38.192Z,2.75
2018-12-23T14:12:08.815Z,2.58
2018-12-23T14:14:39.452Z,3.15
2018-12-23T14:17:10.178Z,3.02
2018-12-23T14:19:40.775Z,2.67
2018-12-23T14:22:11.571Z,2.58
2018-12-23T14:24:42.318Z,3.95
2018-12-23T14:27:12.917Z,2.30
2018-12-23T14:29:43.674Z,2.17
2018-12-23T14:32:14.380Z,3.37
2018-12-23T14:34:45.252Z,2.65
2018-12-23T14:37:15.799Z,2.25
2018-12-23T14:39:47.366Z,2.17
2018-12-23T14:42:18.123Z,8.65
2018-12-23T14:44:48.852Z,3.65
2018-12-23T14:47:19.630Z,3.58
2018-12-23T14:49:50.503Z,2.42
2018-12-23T14:52:22.260Z,3.12
2018-12-23T14:54:53.195Z,2.25
2018-12-23T14:57:23.639Z,1.52
2018-12-23T14:59:54.223Z,2.47
2018-12-23T15:02:24.644Z,2.98
2018-12-23T15:04:55.157Z,2.12
2018-12-23T15:07:25.967Z,1.87
2018-12-23T15:09:56.631Z,2.72
2018-12-23T15:12:27.334Z,2.60
2018-12-23T15:14:58.134Z,2.33
2018-12-23T15:17:28.747Z,3.33
2018-12-23T15:19:59.510Z,2.33
2018-12-23T15:22:29.754Z,3.02
2018-12-23T15:25:00.316Z,2.77
2018-12-23T15:27:31.007Z,2.77
2018-12-23T15:30:01.599Z,2.85
2018-12-23T15:32:32.318Z,2.87
2018-12-23T15:35:02.735Z,3.55
2018-12-23T15:37:33.276Z,3.92
2018-12-23T15:40:04.353Z,4.12
2018-12-23T15:42:34.951Z,5.17
2018-12-23T15:45:05.628Z,4.70
2018-12-23T15:47:35.978Z,21.10
2018-12-23T15:50:06.876Z,4.87
2018-12-23T15:52:37.246Z,7.45
2018-12-23T15:55:07.588Z,6.53
2018-12-23T15:57:38.175Z,6.97
2018-12-23T16:00:09.547Z,4.50
2018-12-23T16:02:40.050Z,6.20
2018-12-23T16:05:10.660Z,7.87
2018-12-23T16:07:41.443Z,5.10
2018-12-23T16:10:12.307Z,5.28
2018-12-23T16:12:42.897Z,6.70
2018-12-23T16:15:14.734Z,7.35
2018-12-23T16:17:45.147Z,6.85
2018-12-23T16:20:16.694Z,13.53
2018-12-23T16:22:47.430Z,9.88
2018-12-23T16:25:18.200Z,12.53
2018-12-23T16:27:48.837Z,9.98
2018-12-23T16:30:19.350Z,10.28
2018-12-23T16:32:49.853Z,9.88
2018-12-23T16:35:20.322Z,8.55
2018-12-23T16:37:50.793Z,9.13
2018-12-23T16:40:21.438Z,7.08
2018-12-23T16:42:51.829Z,8.50
2018-12-23T16:45:23.357Z,9.48
2018-12-23T16:47:53.890Z,9.58
2018-12-23T16:50:24.562Z,12.23
2018-12-23T16:52:54.855Z,9.08
2018-12-23T16:55:25.270Z,8.03
2018-12-23T16:57:56.576Z,8.83
2018-12-23T17:00:27.327Z,6.90
2018-12-23T17:02:57.873Z,4.58
2018-12-23T17:05:28.196Z,5.28
2018-12-23T17:07:58.946Z,4.00
2018-12-23T17:10:29.759Z,5.97
2018-12-23T17:13:00.411Z,5.72
2018-12-23T17:15:31.483Z,7.85
2018-12-23T17:18:02.067Z,4.87
2018-12-23T17:20:32.717Z,8.63
2018-12-23T17:23:03.154Z,6.08
2018-12-23T17:25:33.798Z,7.62
2018-12-23T17:28:04.325Z,9.25
2018-12-23T17:30:34.862Z,7.47
2018-12-23T17:33:05.151Z,6.70
2018-12-23T17:35:35.770Z,7.35
2018-12-23T17:38:06.547Z,4.62
2018-12-23T17:40:37.297Z,7.00
2018-12-23T17:43:08.008Z,5.87
2018-12-23T17:45:38.447Z,6.20
2018-12-23T17:48:08.876Z,6.75
2018-12-23T17:50:39.462Z,8.10
2018-12-23T17:53:10.099Z,6.83
2018-12-23T17:55:40.679Z,9.03
2018-12-23T17:58:10.991Z,10.23
2018-12-23T18:00:41.590Z,10.03
2018-12-23T18:03:12.408Z,12.85
2018-12-23T18:05:42.948Z,9.00
2018-12-23T18:08:13.463Z,11.78
2018-12-23T18:10:44.066Z,11.20
2018-12-23T18:13:14.362Z,9.65
2018-12-23T18:15:45.131Z,15.98
2018-12-23T18:18:15.931Z,11.50
2018-12-23T18:20:46.438Z,12.18
2018-12-23T18:23:16.835Z,9.50
2018-12-23T18:25:47.238Z,7.30
2018-12-23T18:28:17.569Z,7.83
2018-12-23T18:30:48.079Z,5.40
2018-12-23T18:33:18.807Z,9.03
2018-12-23T18:35:49.414Z,8.63
2018-12-23T18:38:20.137Z,11.33
2018-12-23T18:40:50.843Z,12.80
2018-12-23T18:43:21.540Z,10.38
2018-12-23T18:45:52.332Z,17.87
2018-12-23T18:48:23.183Z,11.97
2018-12-23T18:50:53.889Z,11.48
2018-12-23T18:53:24.558Z,12.60
2018-12-23T18:55:55.348Z,12.85
2018-12-23T18:58:26.179Z,11.60
2018-12-23T19:00:59.945Z,11.03
2018-12-23T19:03:30.421Z,8.23
2018-12-23T19:06:01.418Z,8.78
2018-12-23T19:08:46.932Z,10.38
2018-12-23T19:11:26.987Z,6.35
2018-12-23T19:14:24.266Z,11.22
2018-12-23T19:19:15.527Z,10.60
2018-12-23T19:21:56.959Z,14.83
2018-12-23T19:25:45.034Z,12.85
2018-12-23T19:28:30.590Z,16.50
2018-12-23T19:31:11.912Z,14.63
2018-12-23T19:33:57.259Z,11.97
2018-12-23T19:36:44.421Z,12.78
2018-12-23T19:41:27.319Z,25.65
2018-12-23T19:44:05.731Z,26.07
2018-12-23T19:47:49.787Z,28.25
2018-12-23T19:50:30.100Z,51.75
2018-12-23T19:54:09.254Z,86.80
2018-12-23T19:58:55.646Z,83.58
2018-12-23T20:01:35.846Z,87.97
2018-12-23T20:04:25.769Z,85.22
2018-12-23T20:08:17.113Z,67.97
2018-12-23T20:10:59.234Z,64.82
2018-12-23T20:13:44.677Z,61.55
2018-12-23T20:16:30.975Z,62.23
2018-12-23T20:19:16.676Z,57.83
2018-12-23T20:22:01.804Z,56.15
2018-12-23T20:25:53.595Z,46.80
2018-12-23T20:28:37.463Z,55.45
2018-12-23T20:31:23.604Z,52.85
2018-12-23T20:36:09.961Z,52.43
2018-12-23T20:40:50.771Z,51.25
2018-12-23T20:44:32.176Z,53.92
2018-12-23T20:47:29.021Z,52.90
2018-12-23T20:51:17.988Z,51.15
2018-12-23T20:54:01.327Z,52.65
2018-12-23T20:57:46.973Z,47.10
2018-12-23T21:01:30.861Z,49.95
2018-12-23T21:04:16.981Z,49.90
2018-12-23T21:08:03.764Z,51.92
2018-12-23T21:10:48.011Z,54.95
2018-12-23T21:14:28.555Z,57.62
2018-12-23T21:17:24.579Z,55.23
2018-12-23T21:20:12.387Z,55.50
2018-12-23T21:22:59.834Z,54.40
2018-12-23T21:26:10.033Z,48.90
2018-12-23T21:29:03.904Z,50.35
2018-12-23T21:32:47.834Z,44.75
2018-12-23T21:35:31.571Z,38.85
2018-12-23T21:38:44.927Z,39.08
2018-12-23T21:41:26.122Z,40.83
2018-12-23T21:46:14.953Z,38.10
2018-12-23T21:49:08.279Z,35.55
2018-12-23T21:52:58.461Z,32.33
2018-12-23T21:55:56.406Z,37.67
2018-12-23T21:58:46.130Z,32.23
2018-12-23T22:02:27.378Z,38.55
2018-12-23T22:05:21.522Z,41.20
2018-12-23T22:08:20.748Z,31.20
2018-12-23T22:12:06.684Z,27.90
2018-12-23T22:14:37.410Z,31.25
2018-12-23T22:17:42.999Z,23.10
2018-12-23T22:20:14.324Z,26.95
2018-12-23T22:22:45.687Z,23.20
2018-12-23T22:25:17.081Z,24.85
2018-12-23T22:27:48.576Z,20.00
2018-12-23T22:30:20.113Z,21.40
2018-12-23T22:32:51.331Z,22.07
2018-12-23T22:35:22.660Z,21.00
2018-12-23T22:37:53.979Z,21.55
2018-12-23T22:40:25.357Z,23.60
2018-12-23T22:42:56.670Z,25.57
2018-12-23T22:45:27.885Z,24.50
2018-12-23T22:47:59.205Z,29.57
2018-12-23T22:50:30.414Z,33.98
2018-12-23T22:53:01.615Z,28.42
2018-12-23T22:55:32.783Z,30.92
2018-12-23T22:58:04.066Z,34.33
2018-12-23T23:00:35.491Z,31.75
2018-12-23T23:03:09.260Z,35.50
2018-12-23T23:05:40.028Z,33.05
2018-12-23T23:08:11.778Z,31.77
2018-12-23T23:10:43.573Z,31.73
2018-12-23T23:13:18.699Z,35.90
2018-12-23T23:15:47.975Z,32.20
2018-12-23T23:18:20.592Z,29.57
2018-12-23T23:20:51.918Z,31.97
2018-12-23T23:23:23.479Z,32.13
2018-12-23T23:25:54.602Z,38.33
2018-12-23T23:28:26.227Z,40.52
2018-12-23T23:30:57.479Z,39.98
2018-12-23T23:33:28.808Z,45.85
2018-12-23T23:36:00.181Z,45.00
2018-12-23T23:38:31.261Z,55.33
2018-12-23T23:41:02.675Z,49.48
2018-12-23T23:43:34.071Z,45.52
2018-12-23T23:46:05.480Z,49.25
2018-12-23T23:48:36.637Z,53.80
2018-12-23T23:51:07.897Z,50.05
2018-12-23T23:53:39.247Z,62.30
2018-12-23T23:56:10.775Z,58.98
2018-12-23T23:58:42.181Z,55.50
